Time;durP1;ratioP1;P1;durP2;ratioP2;P2;SDS_P1;SDS_P2;PMS_P1;PMS_P2;Temp;Humidity;BMP_temperature;BMP_pressure;BME280_temperature;BME280_humidity;BME280_pressure;Samples;Min_cycle;Max_cycle;Signal;HPM_P1;HPM_P2
2022/06/12 00:01:11;;;;;;;13.30;2.85;;;;;;;;;;5056224;28;20032;-71
2022/06/12 00:03:37;;;;;;;8.23;2.10;;;;;;;;;;5073776;28;20024;-70
2022/06/12 00:06:03;;;;;;;7.00;1.60;;;;;;;;;;5063584;28;20029;-71
2022/06/12 00:08:33;;;;;;;8.77;2.38;;;14.40;99.90;;;;;;5057579;28;20021;-70
2022/06/12 00:11:00;;;;;;;11.82;2.53;;;;;;;;;;5048258;28;20029;-70
2022/06/12 00:13:29;;;;;;;7.63;2.20;;;;;;;;;;5063342;28;20025;-70
2022/06/12 00:15:55;;;;;;;7.03;1.75;;;;;;;;;;5065912;28;20072;-70
2022/06/12 00:18:23;;;;;;;9.00;2.20;;;;;;;;;;5072536;28;20138;-71
2022/06/12 00:21:10;;;;;;;9.27;2.47;;;;;;;;;;5063581;28;20026;-70
2022/06/12 00:23:36;;;;;;;7.32;1.95;;;;;;;;;;5053227;28;20021;-71
2022/06/12 00:26:02;;;;;;;7.30;1.95;;;;;;;;;;5058964;28;20148;-71
2022/06/12 00:28:28;;;;;;;7.75;1.65;;;;;;;;;;5068658;28;20078;-71
2022/06/12 00:30:54;;;;;;;13.63;3.13;;;;;;;;;;5071400;28;20387;-70
2022/06/12 00:33:19;;;;;;;13.93;3.05;;;;;;;;;;5066952;28;20044;-71
2022/06/12 00:35:45;;;;;;;8.13;3.10;;;;;;;;;;5066236;28;20037;-71
2022/06/12 00:38:11;;;;;;;10.60;2.13;;;;;;;;;;5068388;28;20047;-71
2022/06/12 00:40:37;;;;;;;11.35;3.20;;;;;;;;;;5066154;28;20045;-71
2022/06/12 00:43:04;;;;;;;7.13;1.92;;;;;;;;;;5061382;28;20029;-71
2022/06/12 00:45:49;;;;;;;14.45;2.80;;;;;;;;;;5060443;28;20063;-71
2022/06/12 00:48:20;;;;;;;13.35;2.33;;;;;;;;;;5071287;28;20029;-71
2022/06/12 00:50:50;;;;;;;27.35;3.47;;;;;;;;;;5081771;28;20028;-71
2022/06/12 00:53:19;;;;;;;11.70;2.55;;;;;;;;;;5069967;28;20020;-71
2022/06/12 00:55:56;;;;;;;6.95;2.03;;;;;;;;;;5053163;28;20032;-71
2022/06/12 00:58:24;;;;;;;17.52;3.55;;;;;;;;;;5070893;28;20074;-70
2022/06/12 01:00:50;;;;;;;10.13;2.55;;;;;;;;;;5072512;28;20376;-71
2022/06/12 01:03:16;;;;;;;13.15;2.55;;;;;;;;;;5064610;28;20033;-71
2022/06/12 01:08:29;;;;;;;16.33;2.88;;;;;;;;;;5069729;28;20097;-71
2022/06/12 01:10:56;;;;;;;12.65;2.58;;;;;;;;;;5068649;28;20032;-71
2022/06/12 01:13:26;;;;;;;10.85;2.45;;;;;;;;;;5055018;28;20148;-71
2022/06/12 01:16:02;;;;;;;6.40;2.25;;;;;;;;;;5066008;28;20049;-71
2022/06/12 01:18:30;;;;;;;9.23;2.40;;;;;;;;;;5058333;28;20033;-71
2022/06/12 01:20:59;;;;;;;16.70;3.65;;;;;;;;;;5057758;28;20074;-71
2022/06/12 01:23:28;;;;;;;11.40;2.28;;;;;;;;;;5053765;28;20059;-71
2022/06/12 01:26:03;;;;;;;10.00;2.25;;;;;;;;;;5081855;28;20028;-71
2022/06/12 01:28:41;;;;;;;8.73;1.90;;;;;;;;;;5066797;28;20107;-71
2022/06/12 01:31:16;;;;;;;12.02;2.58;;;;;;;;;;5064727;28;20039;-71
2022/06/12 01:33:42;;;;;;;11.68;2.20;;;;;;;;;;5057901;28;20044;-71
2022/06/12 01:36:27;;;;;;;14.77;3.35;;;;;;;;;;5064233;28;20037;-71
2022/06/12 01:38:56;;;;;;;8.95;2.15;;;;;;;;;;5064035;28;20447;-71
2022/06/12 01:41:28;;;;;;;11.73;2.33;;;;;;;;;;5077709;28;20126;-71
2022/06/12 01:44:03;;;;;;;15.50;2.80;;;;;;;;;;5072349;28;20110;-71
2022/06/12 01:46:57;;;;;;;13.85;2.80;;;13.40;99.90;;;;;;5052752;28;20047;-71
2022/06/12 01:49:57;;;;;;;12.55;2.15;;;;;;;;;;5066998;28;20029;-71
2022/06/12 01:52:35;;;;;;;8.38;2.40;;;;;;;;;;5019232;28;20476;-71
2022/06/12 01:55:13;;;;;;;14.65;3.08;;;;;;;;;;5084387;28;20103;-71
2022/06/12 01:57:57;;;;;;;11.68;2.53;;;;;;;;;;5072574;28;20032;-71
2022/06/12 02:00:24;;;;;;;13.60;3.53;;;;;;;;;;5054045;28;20040;-71
2022/06/12 02:02:52;;;;;;;12.38;3.80;;;;;;;;;;5071566;28;20062;-71
2022/06/12 02:05:55;;;;;;;11.90;2.90;;;13.50;99.90;;;;;;5060498;28;20052;-72
2022/06/12 02:08:24;;;;;;;10.38;2.58;;;;;;;;;;5050801;28;20560;-72
2022/06/12 02:10:53;;;;;;;15.07;3.40;;;;;;;;;;5068186;28;20468;-71
2022/06/12 02:13:22;;;;;;;10.68;2.65;;;;;;;;;;5066174;28;20391;-71
2022/06/12 02:15:57;;;;;;;11.13;2.70;;;;;;;;;;5065733;28;20079;-71
2022/06/12 02:18:34;;;;;;;9.27;2.45;;;;;;;;;;5071300;28;20035;-71
2022/06/12 02:21:06;;;;;;;16.10;2.80;;;;;;;;;;5054010;28;20032;-71
2022/06/12 02:23:42;;;;;;;12.77;3.45;;;;;;;;;;5058270;28;20024;-71
2022/06/12 02:26:11;;;;;;;12.82;3.05;;;;;;;;;;5066020;28;20087;-70
2022/06/12 02:28:42;;;;;;;15.18;2.72;;;;;;;;;;5061895;28;20086;-71
2022/06/12 02:31:11;;;;;;;13.68;2.97;;;;;;;;;;5070223;28;20040;-71
2022/06/12 02:33:40;;;;;;;11.63;3.47;;;;;;;;;;5057156;28;20029;-71
2022/06/12 02:36:16;;;;;;;14.18;3.35;;;;;;;;;;5053702;28;20065;-71
2022/06/12 02:38:51;;;;;;;11.75;2.55;;;;;;;;;;5065573;28;20028;-71
2022/06/12 02:41:28;;;;;;;11.93;3.03;;;;;;;;;;5053534;28;20071;-70
2022/06/12 02:43:56;;;;;;;117.85;80.15;;;;;;;;;;5064258;28;20040;-72
2022/06/12 02:46:27;;;;;;;28.13;6.53;;;;;;;;;;5070871;28;20032;-73
2022/06/12 02:48:53;;;;;;;15.20;3.42;;;;;;;;;;5078120;28;20427;-71
2022/06/12 02:51:22;;;;;;;11.70;3.03;;;;;;;;;;5074666;28;20056;-72
2022/06/12 02:53:51;;;;;;;14.63;3.08;;;;;;;;;;5072754;28;20036;-70
2022/06/12 02:56:20;;;;;;;12.48;3.75;;;;;;;;;;5051320;28;20029;-70
2022/06/12 02:59:07;;;;;;;8.50;2.72;;;;;;;;;;5065160;28;20107;-70
2022/06/12 03:01:36;;;;;;;12.00;3.17;;;;;;;;;;5056120;28;20036;-70
2022/06/12 03:04:28;;;;;;;8.00;2.83;;;;;;;;;;5061069;28;20388;-70
2022/06/12 03:06:54;;;;;;;12.45;2.95;;;;;;;;;;5060326;28;20029;-70
2022/06/12 03:09:21;;;;;;;15.07;3.08;;;;;;;;;;5057305;28;20031;-70
2022/06/12 03:11:48;;;;;;;14.48;3.45;;;;;;;;;;5054396;28;20096;-70
2022/06/12 03:14:16;;;;;;;17.08;2.80;;;;;;;;;;5071406;28;20089;-70
2022/06/12 03:16:44;;;;;;;15.48;2.65;;;;;;;;;;5067806;28;20045;-70
2022/06/12 03:19:12;;;;;;;15.63;3.10;;;;;;;;;;5064492;28;20581;-70
2022/06/12 03:21:39;;;;;;;16.38;3.97;;;;;;;;;;5071818;28;20048;-70
2022/06/12 03:24:25;;;;;;;11.30;3.17;;;;;;;;;;5073145;28;20369;-71
2022/06/12 03:27:10;;;;;;;15.25;3.42;;;;;;;;;;5074753;28;20455;-71
2022/06/12 03:29:46;;;;;;;10.50;3.30;;;;;;;;;;5084066;28;20059;-71
2022/06/12 03:32:18;;;;;;;11.15;3.83;;;;;;;;;;5073678;28;20424;-71
2022/06/12 03:34:54;;;;;;;20.13;3.40;;;;;;;;;;5075317;28;20028;-71
2022/06/12 03:37:25;;;;;;;12.68;4.07;;;;;;;;;;5076854;28;20044;-71
2022/06/12 03:40:11;;;;;;;13.63;3.35;;;;;;;;;;5072621;28;20596;-71
2022/06/12 03:42:48;;;;;;;13.95;2.90;;;;;;;;;;5010630;28;20071;-71
2022/06/12 03:45:22;;;;;;;12.80;3.60;;;;;;;;;;5074179;28;20538;-71
2022/06/12 03:47:51;;;;;;;14.70;3.17;;;;;;;;;;5092261;28;20052;-71
2022/06/12 03:50:26;;;;;;;12.93;3.30;;;;;;;;;;5075733;28;20103;-71
2022/06/12 03:53:11;;;;;;;14.63;3.20;;;;;;;;;;5072431;28;20050;-71
2022/06/12 03:58:30;;;;;;;16.60;4.03;;;;;;;;;;5071909;28;20082;-71
2022/06/12 04:00:58;;;;;;;14.35;3.10;;;;;;;;;;5072038;28;20021;-71
2022/06/12 04:03:31;;;;;;;12.45;3.00;;;;;;;;;;5073140;28;20074;-71
2022/06/12 04:06:02;;;;;;;12.18;2.80;;;;;;;;;;5064531;28;20074;-71
2022/06/12 04:08:31;;;;;;;9.40;2.72;;;;;;;;;;5066742;28;20076;-71
2022/06/12 04:10:58;;;;;;;15.52;2.78;;;;;;;;;;5054626;28;20479;-71
2022/06/12 04:13:24;;;;;;;18.10;3.20;;;;;;;;;;5069510;28;20130;-71
2022/06/12 04:15:55;;;;;;;14.98;3.63;;;;;;;;;;5069927;28;20115;-71
2022/06/12 04:18:22;;;;;;;15.23;3.45;;;;;;;;;;5061080;28;20032;-71
2022/06/12 04:21:08;;;;;;;19.65;2.97;;;;;;;;;;5066045;28;20033;-73
2022/06/12 04:23:45;;;;;;;9.48;2.92;;;;;;;;;;5059644;28;20028;-72
2022/06/12 04:26:22;;;;;;;12.45;2.63;;;;;;;;;;5067839;28;20422;-72
2022/06/12 04:28:54;;;;;;;13.75;2.60;;;;;;;;;;5061781;28;20471;-71
2022/06/12 04:31:20;;;;;;;18.55;5.13;;;;;;;;;;5071520;28;20484;-77
2022/06/12 04:33:56;;;;;;;22.17;8.35;;;;;;;;;;5068505;28;20029;-78
2022/06/12 04:36:23;;;;;;;12.07;3.00;;;;;;;;;;5069720;28;20035;-71
2022/06/12 04:38:49;;;;;;;11.07;2.83;;;;;;;;;;5069830;28;20029;-70
2022/06/12 04:41:28;;;;;;;13.85;3.70;;;13.70;99.90;;;;;;5068926;28;20078;-70
2022/06/12 04:43:54;;;;;;;21.40;3.33;;;;;;;;;;5065928;28;20525;-70
2022/06/12 04:46:20;;;;;;;16.80;3.72;;;;;;;;;;5069551;28;20119;-71
2022/06/12 04:48:47;;;;;;;15.90;3.80;;;;;;;;;;5081831;28;20039;-70
2022/06/12 04:51:13;;;;;;;14.48;3.70;;;;;;;;;;5087310;28;20030;-71
2022/06/12 04:53:40;;;;;;;22.15;4.05;;;;;;;;;;5078020;28;20472;-71
2022/06/12 04:56:08;;;;;;;15.45;3.33;;;;;;;;;;5068367;28;20040;-71
2022/06/12 04:58:34;;;;;;;19.60;3.90;;;;;;;;;;5053967;28;20036;-71
2022/06/12 05:01:00;;;;;;;16.73;2.17;;;;;;;;;;5071984;28;20107;-71
2022/06/12 05:03:27;;;;;;;15.95;3.53;;;;;;;;;;5072037;28;20024;-77
2022/06/12 05:05:53;;;;;;;14.15;4.97;;;;;;;;;;5055533;28;20499;-76
2022/06/12 05:08:19;;;;;;;17.55;4.45;;;;;;;;;;5072164;28;20037;-70
2022/06/12 05:10:46;;;;;;;22.88;4.45;;;;;;;;;;5071621;28;20044;-71
2022/06/12 05:13:12;;;;;;;16.95;2.90;;;;;;;;;;5053339;28;20071;-72
2022/06/12 05:15:38;;;;;;;16.23;2.83;;;;;;;;;;5066452;28;20056;-72
2022/06/12 05:18:05;;;;;;;16.38;2.67;;;;;;;;;;5053101;28;20504;-71
2022/06/12 05:20:34;;;;;;;16.95;3.83;;;;;;;;;;5067264;28;20082;-71
2022/06/12 05:23:00;;;;;;;20.63;4.45;;;;;;;;;;5051888;28;20495;-71
2022/06/12 05:25:26;;;;;;;21.23;3.63;;;;;;;;;;5069425;28;20028;-71
2022/06/12 05:27:53;;;;;;;20.25;4.00;;;;;;;;;;5064436;28;20052;-73
2022/06/12 05:30:21;;;;;;;20.00;3.22;;;;;;;;;;5067153;28;20090;-71
2022/06/12 05:32:48;;;;;;;18.25;3.58;;;;;;;;;;5071954;28;20113;-71
2022/06/12 05:35:14;;;;;;;18.52;3.60;;;;;;;;;;5063460;28;20047;-77
2022/06/12 05:37:40;;;;;;;21.23;4.85;;;;;;;;;;5062442;28;20143;-77
2022/06/12 05:40:10;;;;;;;21.05;4.45;;;;;;;;;;5065874;28;20040;-77
2022/06/12 05:42:37;;;;;;;16.08;3.97;;;;;;;;;;5059243;28;20033;-77
2022/06/12 05:45:03;;;;;;;19.08;4.40;;;;;;;;;;5051168;28;20067;-75
2022/06/12 05:47:29;;;;;;;23.63;3.65;;;;;;;;;;5067970;28;20045;-75
2022/06/12 05:49:55;;;;;;;19.60;4.13;;;;;;;;;;5059319;28;20114;-75
2022/06/12 05:52:21;;;;;;;19.30;3.50;;;;;;;;;;5052782;28;20059;-76
2022/06/12 05:54:47;;;;;;;17.23;3.65;;;;;;;;;;5066984;28;20391;-75
2022/06/12 05:57:13;;;;;;;18.08;4.35;;;;;;;;;;5068013;28;20040;-75
2022/06/12 05:59:39;;;;;;;23.23;5.43;;;;;;;;;;5062201;28;20464;-75
2022/06/12 06:02:06;;;;;;;23.08;4.45;;;;;;;;;;5069782;28;20025;-75
2022/06/12 06:04:32;;;;;;;21.13;4.30;;;;;;;;;;5060490;28;20095;-76
2022/06/12 06:06:59;;;;;;;25.00;4.78;;;;;;;;;;5063671;28;20108;-76
2022/06/12 06:09:26;;;;;;;18.17;4.53;;;16.00;99.90;;;;;;5057551;28;20420;-76
2022/06/12 06:11:54;;;;;;;24.25;5.32;;;;;;;;;;5069651;28;20416;-76
2022/06/12 06:14:21;;;;;;;29.20;4.93;;;;;;;;;;5070986;28;20443;-76
2022/06/12 06:16:47;;;;;;;20.63;4.15;;;;;;;;;;5071044;28;20048;-76
2022/06/12 06:19:14;;;;;;;35.58;5.97;;;;;;;;;;5053825;28;20457;-76
2022/06/12 06:21:40;;;;;;;24.58;4.93;;;;;;;;;;5071806;28;20044;-76
2022/06/12 06:24:07;;;;;;;27.58;5.32;;;;;;;;;;5062942;28;20596;-76
2022/06/12 06:26:33;;;;;;;34.90;6.53;;;;;;;;;;5066177;28;20028;-76
2022/06/12 06:29:00;;;;;;;24.77;5.50;;;;;;;;;;5067662;28;20040;-76
2022/06/12 06:31:27;;;;;;;22.73;4.82;;;18.20;99.90;;;;;;5068883;28;20028;-76
2022/06/12 06:33:54;;;;;;;26.98;5.05;;;;;;;;;;5069916;28;20029;-76
2022/06/12 06:36:21;;;;;;;26.30;5.10;;;;;;;;;;5035650;28;20138;-76
2022/06/12 06:38:47;;;;;;;27.45;4.75;;;;;;;;;;5054045;28;20419;-76
2022/06/12 06:41:14;;;;;;;25.75;4.88;;;;;;;;;;5070427;28;20043;-76
2022/06/12 06:46:25;;;;;;;28.60;5.35;;;;;;;;;;5072579;28;20553;-76
2022/06/12 06:48:51;;;;;;;29.23;6.18;;;;;;;;;;5067449;28;20040;-76
2022/06/12 06:51:17;;;;;;;25.95;4.97;;;;;;;;;;5087573;28;20657;-76
2022/06/12 06:53:43;;;;;;;27.70;5.88;;;;;;;;;;5074939;28;20060;-76
2022/06/12 06:56:09;;;;;;;32.58;5.60;;;;;;;;;;5069187;28;20051;-76
2022/06/12 06:58:36;;;;;;;29.13;5.35;;;;;;;;;;5069180;28;20033;-76
2022/06/12 07:01:03;;;;;;;29.88;6.10;;;;;;;;;;5052050;28;20043;-76
2022/06/12 07:03:29;;;;;;;29.90;4.90;;;;;;;;;;5051097;28;20079;-76
2022/06/12 07:05:55;;;;;;;21.83;4.93;;;;;;;;;;5069543;28;20082;-77
2022/06/12 07:08:23;;;;;;;26.90;6.20;;;21.50;99.90;;;;;;5062705;28;20492;-77
2022/06/12 07:10:50;;;;;;;23.52;4.35;;;;;;;;;;5068171;28;20036;-77
2022/06/12 07:13:16;;;;;;;20.85;4.53;;;;;;;;;;5071208;28;20044;-76
2022/06/12 07:15:42;;;;;;;19.55;4.10;;;;;;;;;;5050824;28;20052;-76
2022/06/12 07:18:09;;;;;;;25.17;4.18;;;;;;;;;;5053312;28;20400;-76
2022/06/12 07:20:37;;;;;;;23.70;4.30;;;;;;;;;;5069799;28;20036;-77
2022/06/12 07:23:05;;;;;;;17.95;4.03;;;23.90;99.90;;;;;;5067583;28;20029;-76
2022/06/12 07:25:32;;;;;;;21.20;4.38;;;;;;;;;;5052981;28;20032;-77
2022/06/12 07:27:57;;;;;;;21.50;4.13;;;24.70;99.90;;;;;;5070997;28;20099;-77
2022/06/12 07:30:23;;;;;;;22.05;4.35;;;;;;;;;;5064266;28;20175;-76
2022/06/12 07:32:50;;;;;;;18.33;4.55;;;;;;;;;;5068726;28;20528;-76
2022/06/12 07:35:17;;;;;;;17.88;4.47;;;25.50;99.90;;;;;;5050339;28;20089;-76
2022/06/12 07:37:43;;;;;;;21.20;4.28;;;;;;;;;;5056834;28;20040;-77
2022/06/12 07:40:16;;;;;;;20.50;5.03;;;26.30;97.60;;;;;;5051733;28;20033;-76
2022/06/12 07:42:43;;;;;;;16.27;3.35;;;;;;;;;;5055723;28;20044;-76
2022/06/12 07:45:10;;;;;;;15.93;3.80;;;;;;;;;;5056997;28;20472;-77
2022/06/12 07:47:36;;;;;;;17.75;4.55;;;;;;;;;;5074151;28;20062;-77
2022/06/12 07:50:03;;;;;;;17.20;3.83;;;;;;;;;;5078965;28;20034;-77
2022/06/12 07:52:30;;;;;;;16.17;3.80;;;;;;;;;;5071138;28;20488;-77
2022/06/12 07:54:56;;;;;;;16.40;3.20;;;;;;;;;;5064856;28;20032;-77
2022/06/12 07:57:22;;;;;;;14.55;3.30;;;;;;;;;;5056529;28;20059;-76
2022/06/12 07:59:48;;;;;;;17.77;3.80;;;;;;;;;;5066443;28;20108;-77
2022/06/12 08:02:14;;;;;;;15.88;3.78;;;;;;;;;;5071359;28;20499;-77
2022/06/12 08:04:40;;;;;;;16.60;3.92;;;;;;;;;;5069734;28;20115;-77
2022/06/12 08:07:06;;;;;;;17.15;3.78;;;;;;;;;;5066443;28;20116;-78
2022/06/12 08:09:32;;;;;;;18.83;3.90;;;;;;;;;;5074274;28;20068;-77
2022/06/12 08:11:58;;;;;;;13.30;2.97;;;;;;;;;;5071958;28;20491;-77
2022/06/12 08:14:24;;;;;;;15.73;3.33;;;;;;;;;;5071800;28;20100;-77
2022/06/12 08:16:51;;;;;;;12.18;3.20;;;28.00;96.80;;;;;;5069027;28;20048;-77
2022/06/12 08:22:04;;;;;;;10.68;2.25;;;28.40;90.70;;;;;;5058192;28;20093;-77
2022/06/12 08:24:30;;;;;;;9.25;2.85;;;;;;;;;;5059211;28;20181;-77
2022/06/12 08:26:56;;;;;;;8.02;2.15;;;;;;;;;;5073242;28;20033;-76
2022/06/12 08:29:22;;;;;;;9.13;2.03;;;28.10;95.30;;;;;;5067011;28;20033;-77
2022/06/12 08:31:59;;;;;;;6.22;2.05;;;28.20;87.70;;;;;;5050919;28;20056;-76
2022/06/12 08:34:27;;;;;;;8.95;1.90;;;;;;;;;;5073455;28;20472;-77
2022/06/12 08:36:57;;;;;;;7.32;2.42;;;28.40;89.70;;;;;;5067584;28;20048;-76
2022/06/12 08:39:23;;;;;;;11.43;2.45;;;;;;;;;;5073410;28;20485;-76
2022/06/12 08:42:03;;;;;;;9.07;2.10;;;28.60;88.10;;;;;;5073305;28;20027;-76
2022/06/12 08:44:29;;;;;;;8.15;2.90;;;;;;;;;;5072835;28;20086;-76
2022/06/12 08:47:11;;;;;;;6.88;1.83;;;28.70;87.00;;;;;;5073094;28;20128;-76
2022/06/12 08:49:44;;;;;;;11.18;2.55;;;;;;;;;;5054867;28;20025;-77
2022/06/12 08:52:16;;;;;;;6.95;1.92;;;;;;;;;;5069829;28;20504;-77
2022/06/12 08:55:00;;;;;;;7.50;2.20;;;28.90;82.50;;;;;;5073375;28;20114;-77
2022/06/12 08:57:34;;;;;;;12.45;3.35;;;28.80;86.20;;;;;;5069308;28;20049;-76
2022/06/12 09:00:14;;;;;;;10.43;2.47;;;28.50;87.50;;;;;;5066040;28;20472;-76
2022/06/12 09:02:42;;;;;;;9.82;2.47;;;27.90;88.50;;;;;;5067110;28;20457;-76
2022/06/12 09:05:11;;;;;;;5.40;1.73;;;;;;;;;;5066007;28;20056;-77
2022/06/12 09:07:55;;;;;;;7.03;2.17;;;27.80;85.00;;;;;;5048167;28;20033;-77
2022/06/12 09:10:36;;;;;;;8.25;2.50;;;27.20;89.10;;;;;;5067105;28;20234;-76
2022/06/12 09:13:02;;;;;;;9.00;1.80;;;;;;;;;;5072952;28;20029;-76
2022/06/12 09:15:54;;;;;;;10.65;1.95;;;;;;;;;;5069435;28;20041;-76
2022/06/12 09:18:23;;;;;;;6.85;1.88;;;;;;;;;;5048275;28;20125;-76
2022/06/12 09:21:18;;;;;;;9.45;2.17;;;26.20;87.90;;;;;;5068821;28;20048;-76
2022/06/12 09:24:11;;;;;;;6.00;2.00;;;26.50;87.20;;;;;;5056452;28;20036;-76
2022/06/12 09:26:37;;;;;;;8.38;2.05;;;;;;;;;;5070620;28;20060;-76
2022/06/12 09:29:21;;;;;;;8.82;2.17;;;;;;;;;;5072728;28;20059;-76
2022/06/12 09:32:06;;;;;;;6.47;1.85;;;;;;;;;;5066162;28;20503;-76
2022/06/12 09:34:51;;;;;;;6.90;1.90;;;;;;;;;;5049503;28;20029;-76
2022/06/12 09:40:34;;;;;;;6.15;1.60;;;;;;;;;;5056278;28;20038;-76
2022/06/12 09:43:22;;;;;;;4.45;1.52;;;26.50;88.80;;;;;;5055968;28;20021;-76
2022/06/12 09:46:03;;;;;;;7.88;2.58;;;;;;;;;;5062183;28;20048;-76
2022/06/12 09:48:40;;;;;;;7.75;2.00;;;;;;;;;;5083714;28;20028;-76
2022/06/12 09:51:12;;;;;;;8.48;1.65;;;;;;;;;;5074432;28;20047;-76
2022/06/12 09:53:39;;;;;;;6.07;1.80;;;;;;;;;;5056408;28;20435;-76
2022/06/12 09:56:10;;;;;;;8.18;2.00;;;;;;;;;;5061488;28;20074;-76
2022/06/12 09:58:47;;;;;;;8.98;2.05;;;;;;;;;;5068703;28;20379;-76
2022/06/12 10:01:18;;;;;;;7.38;1.92;;;;;;;;;;5069917;28;20391;-76
2022/06/12 10:04:02;;;;;;;9.75;2.13;;;;;;;;;;5050939;28;20024;-76
2022/06/12 10:06:33;;;;;;;5.68;1.70;;;;;;;;;;5065469;28;20388;-76
2022/06/12 10:09:05;;;;;;;7.35;1.90;;;;;;;;;;5070697;28;20376;-76
2022/06/12 10:11:34;;;;;;;10.23;1.73;;;;;;;;;;5067888;28;20040;-76
2022/06/12 10:14:09;;;;;;;7.45;1.88;;;;;;;;;;5071775;28;20024;-76
2022/06/12 10:16:45;;;;;;;6.90;2.00;;;;;;;;;;5062075;28;20048;-76
2022/06/12 10:19:15;;;;;;;6.18;1.80;;;;;;;;;;5061826;28;20021;-76
2022/06/12 10:21:45;;;;;;;6.97;1.65;;;26.60;86.60;;;;;;5063714;28;20024;-76
2022/06/12 10:24:11;;;;;;;5.70;1.70;;;;;;;;;;5049756;28;20079;-76
2022/06/12 10:26:38;;;;;;;5.65;1.70;;;;;;;;;;5061296;28;20083;-76
2022/06/12 10:29:05;;;;;;;6.80;2.05;;;25.40;95.70;;;;;;5064824;28;20064;-76
2022/06/12 10:31:34;;;;;;;7.80;2.30;;;;;;;;;;5068533;28;20361;-76
2022/06/12 10:34:18;;;;;;;6.65;1.88;;;26.00;87.40;;;;;;5056416;28;20025;-76
2022/06/12 10:36:44;;;;;;;10.35;2.10;;;;;;;;;;5059605;28;20068;-76
2022/06/12 10:39:17;;;;;;;7.78;1.77;;;;;;;;;;5057957;28;20538;-76
2022/06/12 10:42:05;;;;;;;10.77;2.75;;;25.70;90.20;;;;;;5063890;28;20029;-76
2022/06/12 10:44:44;;;;;;;7.57;2.45;;;25.40;90.60;;;;;;5063295;28;20072;-77
2022/06/12 10:47:31;;;;;;;6.35;1.67;;;25.60;90.50;;;;;;5084911;28;20081;-76
2022/06/12 10:50:15;;;;;;;4.93;1.67;;;;;;;;;;5050831;28;20100;-76
2022/06/12 10:53:11;;;;;;;8.05;1.90;;;;;;;;;;5070936;28;20120;-76
2022/06/12 10:56:07;;;;;;;7.78;2.05;;;25.50;89.00;;;;;;5040011;28;20049;-76
2022/06/12 10:58:54;;;;;;;9.85;1.85;;;25.60;87.70;;;;;;5063787;28;20564;-76
2022/06/12 11:01:20;;;;;;;6.43;1.90;;;;;;;;;;5069009;28;20380;-76
2022/06/12 11:04:02;;;;;;;9.60;2.13;;;;;;;;;;5071052;28;20043;-76
2022/06/12 11:06:45;;;;;;;8.10;2.50;;;;;;;;;;5066222;28;20042;-76
2022/06/12 11:09:17;;;;;;;8.95;2.30;;;;;;;;;;5069834;28;20025;-76
2022/06/12 11:12:07;;;;;;;8.50;2.00;;;25.90;87.40;;;;;;5061504;28;20050;-76
2022/06/12 11:14:39;;;;;;;9.88;2.20;;;;;;;;;;5051994;28;20599;-76
2022/06/12 11:17:11;;;;;;;12.65;3.35;;;;;;;;;;5066485;28;20044;-76
2022/06/12 11:19:37;;;;;;;5.55;1.75;;;;;;;;;;5071271;28;20087;-76
2022/06/12 11:22:40;;;;;;;8.05;2.00;;;25.70;88.90;;;;;;5068513;28;20032;-76
2022/06/12 11:25:11;;;;;;;10.18;2.60;;;25.40;87.00;;;;;;5074919;28;20028;-76
2022/06/12 11:28:06;;;;;;;11.00;3.08;;;25.40;87.90;;;;;;5074953;28;20071;-76
2022/06/12 11:30:38;;;;;;;10.88;2.35;;;;;;;;;;5061377;28;20630;-75
2022/06/12 11:33:04;;;;;;;14.60;3.15;;;;;;;;;;5059752;28;20138;-75
2022/06/12 11:35:38;;;;;;;8.98;1.88;;;25.10;87.80;;;;;;5072748;28;20046;-75
2022/06/12 11:38:23;;;;;;;7.55;2.30;;;;;;;;;;5073483;28;20089;-75
2022/06/12 11:41:47;;;;;;;7.30;2.15;;;25.30;91.30;;;;;;5066921;28;20044;-75
2022/06/12 11:45:00;;;;;;;8.80;2.03;;;25.20;91.20;;;;;;4979778;28;20654;-76
2022/06/12 11:47:32;;;;;;;4.93;1.88;;;;;;;;;;5061226;28;20049;-75
2022/06/12 11:50:17;;;;;;;4.50;1.38;;;;;;;;;;5066640;28;20057;-75
2022/06/12 11:53:06;;;;;;;10.50;2.47;;;;;;;;;;5069986;28;20113;-75
2022/06/12 11:55:43;;;;;;;7.25;2.28;;;;;;;;;;5032482;28;20467;-76
2022/06/12 11:58:13;;;;;;;6.78;2.60;;;;;;;;;;5066644;28;20044;-75
2022/06/12 12:00:44;;;;;;;8.05;1.77;;;;;;;;;;5072958;28;20049;-75
2022/06/12 12:03:30;;;;;;;7.18;1.95;;;;;;;;;;5069763;28;20020;-76
2022/06/12 12:06:02;;;;;;;5.80;1.50;;;;;;;;;;5063369;28;20028;-75
2022/06/12 12:08:31;;;;;;;6.55;1.25;;;;;;;;;;5071730;28;20028;-76
2022/06/12 12:11:11;;;;;;;10.55;2.15;;;25.10;90.00;;;;;;5073639;28;20020;-75
2022/06/12 12:13:42;;;;;;;6.97;1.70;;;;;;;;;;5053744;28;20029;-75
2022/06/12 12:16:40;;;;;;;6.05;1.88;;;25.40;90.90;;;;;;5059250;28;20080;-75
2022/06/12 12:19:14;;;;;;;7.35;1.70;;;25.20;89.40;;;;;;5039777;28;20203;-75
2022/06/12 12:21:48;;;;;;;9.30;1.77;;;;;;;;;;5051115;28;20081;-76
2022/06/12 12:24:17;;;;;;;6.53;2.05;;;;;;;;;;5070403;28;20067;-76
2022/06/12 12:26:45;;;;;;;6.70;1.35;;;25.30;89.80;;;;;;5065019;28;20029;-76
2022/06/12 12:29:15;;;;;;;8.23;1.65;;;;;;;;;;5073493;28;20028;-76
2022/06/12 12:31:41;;;;;;;7.20;1.98;;;;;;;;;;5071797;28;20025;-75
2022/06/12 12:34:08;;;;;;;6.38;2.33;;;25.10;88.50;;;;;;5071341;28;20534;-76
2022/06/12 12:42:21;;;;;;;7.97;1.95;;;25.30;91.00;;;;;;5072101;28;20066;-75
2022/06/12 12:44:47;;;;;;;8.52;1.80;;;;;;;;;;5083245;28;20073;-76
2022/06/12 12:47:31;;;;;;;10.27;2.10;;;;;;;;;;5076083;28;20032;-76
2022/06/12 12:50:02;;;;;;;8.15;1.60;;;;;;;;;;5058544;28;20096;-75
2022/06/12 12:52:40;;;;;;;7.55;2.20;;;25.60;90.00;;;;;;5064165;28;20542;-75
2022/06/12 12:55:16;;;;;;;7.10;2.33;;;;;;;;;;5055488;28;20025;-74
2022/06/12 12:57:44;;;;;;;6.97;2.13;;;;;;;;;;5072629;28;20086;-74
2022/06/12 13:00:33;;;;;;;6.68;2.13;;;;;;;;;;5066257;28;20035;-74
2022/06/12 13:03:07;;;;;;;9.73;1.88;;;25.20;87.80;;;;;;5072291;28;20399;-75
2022/06/12 13:05:45;;;;;;;6.85;1.45;;;;;;;;;;5069875;28;20361;-76
2022/06/12 13:08:26;;;;;;;7.85;1.85;;;25.40;87.30;;;;;;5068597;28;20063;-75
2022/06/12 13:11:11;;;;;;;7.45;1.73;;;;;;;;;;5064578;28;20123;-75
2022/06/12 13:13:46;;;;;;;10.55;2.70;;;;;;;;;;5071261;28;20524;-75
2022/06/12 13:16:15;;;;;;;8.23;2.72;;;;;;;;;;5066901;28;20048;-76
2022/06/12 13:18:41;;;;;;;7.93;2.35;;;;;;;;;;5072148;28;20028;-76
2022/06/12 13:21:48;;;;;;;7.40;2.00;;;24.90;91.60;;;;;;5055334;28;20035;-76
2022/06/12 13:24:32;;;;;;;10.55;2.70;;;;;;;;;;5052551;28;20029;-76
2022/06/12 13:26:59;;;;;;;10.48;2.17;;;;;;;;;;5057456;28;20067;-76
2022/06/12 13:29:26;;;;;;;8.32;2.05;;;24.80;91.20;;;;;;5064505;28;20032;-76
2022/06/12 13:32:00;;;;;;;10.40;2.00;;;24.40;91.80;;;;;;5067393;28;20058;-75
2022/06/12 13:34:30;;;;;;;8.43;1.70;;;;;;;;;;5058218;28;20057;-75
2022/06/12 13:36:57;;;;;;;8.00;1.65;;;24.30;97.30;;;;;;5062543;28;20350;-76
2022/06/12 13:39:36;;;;;;;5.10;1.73;;;;;;;;;;5054346;28;20032;-75
2022/06/12 13:42:05;;;;;;;8.88;2.13;;;;;;;;;;5059308;28;20031;-76
2022/06/12 13:44:31;;;;;;;10.95;3.20;;;;;;;;;;5056647;28;20488;-76
2022/06/12 13:47:13;;;;;;;8.85;2.05;;;23.60;92.50;;;;;;5056983;28;20037;-75
2022/06/12 13:49:40;;;;;;;10.50;2.40;;;;;;;;;;5053746;28;20033;-76
2022/06/12 13:52:16;;;;;;;8.82;2.33;;;;;;;;;;5070966;28;20020;-76
2022/06/12 13:54:43;;;;;;;8.95;1.88;;;;;;;;;;5068034;28;20108;-75
2022/06/12 13:57:14;;;;;;;8.50;2.00;;;;;;;;;;5070976;28;20079;-75
2022/06/12 13:59:45;;;;;;;8.20;2.37;;;;;;;;;;5071497;28;20447;-75
2022/06/12 14:02:16;;;;;;;7.70;2.33;;;;;;;;;;5063334;28;20096;-76
2022/06/12 14:04:49;;;;;;;9.30;2.38;;;;;;;;;;5066413;28;20028;-76
2022/06/12 14:07:15;;;;;;;7.78;2.03;;;;;;;;;;5068453;28;20039;-76
2022/06/12 14:09:42;;;;;;;8.35;2.33;;;;;;;;;;5053623;28;20090;-76
2022/06/12 14:12:13;;;;;;;6.85;1.95;;;;;;;;;;5070988;28;20052;-76
2022/06/12 14:14:45;;;;;;;13.20;2.55;;;;;;;;;;5069525;28;20024;-76
2022/06/12 14:17:19;;;;;;;8.80;2.25;;;;;;;;;;5065944;28;20118;-76
2022/06/12 14:19:56;;;;;;;8.10;2.17;;;23.30;94.20;;;;;;5055456;28;20040;-75
2022/06/12 14:22:22;;;;;;;5.93;1.80;;;;;;;;;;5069160;28;20468;-76
2022/06/12 14:24:59;;;;;;;8.52;2.60;;;;;;;;;;5066042;28;20436;-76
2022/06/12 14:27:34;;;;;;;12.43;2.22;;;;;;;;;;5052231;28;20115;-76
2022/06/12 14:30:00;;;;;;;10.75;3.13;;;;;;;;;;5069605;28;20029;-75
2022/06/12 14:32:28;;;;;;;10.43;2.33;;;;;;;;;;5067390;28;20102;-75
2022/06/12 14:35:01;;;;;;;12.13;2.28;;;;;;;;;;5067828;28;20047;-75
2022/06/12 14:37:33;;;;;;;7.32;2.20;;;;;;;;;;5070368;28;20119;-75
2022/06/12 14:40:00;;;;;;;11.30;2.42;;;;;;;;;;5070588;28;20371;-75
2022/06/12 14:42:27;;;;;;;14.55;2.75;;;;;;;;;;5063179;28;20433;-76
2022/06/12 14:44:53;;;;;;;8.93;2.25;;;;;;;;;;5069696;28;20103;-75
2022/06/12 14:47:23;;;;;;;10.55;2.60;;;23.50;92.90;;;;;;5083835;28;20029;-76
2022/06/12 14:49:50;;;;;;;11.88;2.40;;;;;;;;;;5069252;28;20456;-76
2022/06/12 14:52:21;;;;;;;12.13;2.22;;;;;;;;;;5067227;28;20067;-76
2022/06/12 14:54:47;;;;;;;8.88;2.35;;;;;;;;;;5051918;28;20036;-75
2022/06/12 14:57:15;;;;;;;10.07;2.88;;;;;;;;;;5070389;28;20059;-75
2022/06/12 14:59:43;;;;;;;9.32;2.78;;;;;;;;;;5057288;28;20036;-76
2022/06/12 15:02:20;;;;;;;10.32;2.60;;;;;;;;;;5067380;28;20021;-76